createdAt,value
2023-05-05T00:01:41.293Z,8.45
2023-05-05T00:04:08.388Z,7.25
2023-05-05T00:06:35.940Z,6.90
2023-05-05T00:09:03.037Z,4.95
2023-05-05T00:11:30.159Z,6.85
2023-05-05T00:13:57.062Z,10.95
2023-05-05T00:16:29.537Z,4.65
2023-05-05T00:18:57.180Z,9.48
2023-05-05T00:21:30.082Z,8.25
2023-05-05T00:23:57.440Z,5.78
2023-05-05T00:26:24.474Z,6.32
2023-05-05T00:28:52.661Z,10.27
2023-05-05T00:31:19.647Z,10.25
2023-05-05T00:33:46.895Z,12.63
2023-05-05T00:36:14.973Z,7.68
2023-05-05T00:38:42.742Z,10.50
2023-05-05T00:41:09.978Z,12.20
2023-05-05T00:43:36.955Z,9.70
2023-05-05T00:46:24.078Z,10.07
2023-05-05T00:48:52.146Z,12.70
2023-05-05T00:51:20.789Z,8.02
2023-05-05T00:53:48.813Z,9.10
2023-05-05T00:56:17.502Z,9.07
2023-05-05T00:58:45.013Z,10.38
2023-05-05T01:01:12.601Z,7.57
2023-05-05T01:03:42.705Z,9.35
2023-05-05T01:06:40.157Z,11.05
2023-05-05T01:09:19.583Z,9.20
2023-05-05T01:12:09.285Z,8.05
2023-05-05T01:14:43.420Z,12.88
2023-05-05T01:17:21.507Z,9.88
2023-05-05T01:20:15.703Z,15.93
2023-05-05T01:22:51.480Z,9.68
2023-05-05T01:25:53.350Z,9.65
2023-05-05T01:28:32.612Z,14.10
2023-05-05T01:31:32.076Z,17.40
2023-05-05T01:34:03.947Z,15.60
2023-05-05T01:36:44.606Z,13.50
2023-05-05T01:39:17.107Z,10.80
2023-05-05T01:41:48.321Z,11.88
2023-05-05T01:44:18.370Z,12.43
2023-05-05T01:46:49.134Z,11.27
2023-05-05T01:49:16.834Z,8.77
2023-05-05T01:51:46.384Z,11.48
2023-05-05T01:54:15.344Z,12.65
2023-05-05T01:56:43.847Z,12.68
2023-05-05T01:59:11.791Z,8.00
2023-05-05T02:01:44.886Z,10.00
2023-05-05T02:04:14.573Z,12.52
2023-05-05T02:06:43.471Z,14.43
2023-05-05T02:09:13.614Z,14.05
2023-05-05T02:11:41.095Z,11.25
2023-05-05T02:14:09.414Z,8.20
2023-05-05T02:16:38.224Z,12.05
2023-05-05T02:19:06.255Z,8.95
2023-05-05T02:21:34.400Z,7.22
2023-05-05T02:24:01.901Z,113.32
2023-05-05T02:26:33.942Z,90.40
2023-05-05T02:29:16.587Z,42.65
2023-05-05T02:31:47.631Z,37.20
2023-05-05T02:34:27.947Z,45.67
2023-05-05T02:37:00.268Z,54.50
2023-05-05T02:39:41.892Z,31.08
2023-05-05T02:42:18.438Z,26.95
2023-05-05T02:44:46.605Z,26.75
2023-05-05T02:47:14.702Z,25.30
2023-05-05T02:49:43.167Z,29.73
2023-05-05T02:52:10.263Z,26.60
2023-05-05T02:54:39.434Z,21.85
2023-05-05T02:57:18.845Z,16.42
2023-05-05T03:00:09.688Z,11.95
2023-05-05T03:02:55.420Z,10.05
2023-05-05T03:05:31.362Z,13.18
2023-05-05T03:08:09.821Z,12.98
2023-05-05T03:10:47.548Z,8.07
2023-05-05T03:13:18.135Z,10.57
2023-05-05T03:15:52.706Z,10.02
2023-05-05T03:18:25.446Z,8.48
2023-05-05T03:20:59.425Z,15.75
2023-05-05T03:23:26.666Z,7.38
2023-05-05T03:25:58.997Z,9.70
2023-05-05T03:28:39.863Z,9.80
2023-05-05T03:31:18.605Z,7.82
2023-05-05T03:33:50.314Z,23.38
2023-05-05T03:36:19.481Z,10.23
2023-05-05T03:38:46.562Z,17.38
2023-05-05T03:41:13.614Z,8.40
2023-05-05T03:43:41.644Z,11.77
2023-05-05T03:46:10.751Z,13.50
2023-05-05T03:48:38.053Z,10.23
2023-05-05T03:51:05.101Z,8.43
2023-05-05T03:53:34.405Z,8.93
2023-05-05T03:56:05.401Z,9.68
2023-05-05T03:58:32.438Z,9.13
2023-05-05T04:00:59.504Z,11.23
2023-05-05T04:03:26.644Z,11.68
2023-05-05T04:05:53.812Z,12.68
2023-05-05T04:08:21.907Z,13.10
2023-05-05T04:10:48.923Z,7.05
2023-05-05T04:13:16.069Z,8.50
2023-05-05T04:15:47.086Z,6.82
2023-05-05T04:18:15.233Z,12.10
2023-05-05T04:20:43.000Z,11.07
2023-05-05T04:23:11.231Z,14.95
2023-05-05T04:25:38.959Z,6.28
2023-05-05T04:28:06.418Z,9.32
2023-05-05T04:30:33.612Z,10.20
2023-05-05T04:33:01.004Z,11.15
2023-05-05T04:35:28.239Z,11.73
2023-05-05T04:37:55.280Z,11.45
2023-05-05T04:40:22.845Z,10.35
2023-05-05T04:42:49.844Z,17.85
2023-05-05T04:45:17.147Z,8.10
2023-05-05T04:47:44.384Z,14.80
2023-05-05T04:50:11.989Z,9.07
2023-05-05T04:52:39.535Z,13.25
2023-05-05T04:55:07.017Z,8.70
2023-05-05T04:57:34.237Z,17.05
2023-05-05T05:00:01.814Z,13.30
2023-05-05T05:02:28.908Z,11.00
2023-05-05T05:04:55.887Z,14.45
2023-05-05T05:07:22.851Z,12.35
2023-05-05T05:09:50.909Z,10.85
2023-05-05T05:12:17.855Z,12.88
2023-05-05T05:14:44.939Z,12.63
2023-05-05T05:17:12.059Z,10.82
2023-05-05T05:19:39.330Z,14.55
2023-05-05T05:22:06.740Z,17.05
2023-05-05T05:24:37.499Z,12.30
2023-05-05T05:27:09.785Z,12.60
2023-05-05T05:29:38.199Z,9.85
2023-05-05T05:32:06.162Z,11.27
2023-05-05T05:34:33.475Z,16.60
2023-05-05T05:37:01.348Z,11.35
2023-05-05T05:39:28.459Z,11.30
2023-05-05T05:41:55.741Z,13.48
2023-05-05T05:44:22.686Z,12.27
2023-05-05T05:46:49.667Z,14.38
2023-05-05T05:49:17.724Z,13.40
2023-05-05T05:51:46.389Z,12.63
2023-05-05T05:54:13.309Z,10.93
2023-05-05T05:56:41.252Z,11.93
2023-05-05T05:59:10.212Z,9.45
2023-05-05T06:01:40.476Z,7.70
2023-05-05T06:04:08.266Z,9.07
2023-05-05T06:06:35.450Z,8.48
2023-05-05T06:09:03.738Z,12.68
2023-05-05T06:11:33.283Z,6.18
2023-05-05T06:14:00.225Z,8.15
2023-05-05T06:16:27.418Z,13.07
2023-05-05T06:18:55.112Z,10.52
2023-05-05T06:21:22.098Z,8.90
2023-05-05T06:23:49.168Z,11.88
2023-05-05T06:26:17.037Z,8.57
2023-05-05T06:28:44.226Z,8.48
2023-05-05T06:31:13.028Z,7.57
2023-05-05T06:33:40.073Z,8.48
2023-05-05T06:36:07.163Z,11.00
2023-05-05T06:38:34.264Z,12.02
2023-05-05T06:41:01.262Z,15.27
2023-05-05T06:43:29.476Z,14.93
2023-05-05T06:45:59.785Z,15.63
2023-05-05T06:48:26.728Z,8.88
2023-05-05T06:50:53.607Z,19.05
2023-05-05T06:53:21.158Z,17.45
2023-05-05T06:55:48.256Z,13.52
2023-05-05T06:58:15.419Z,11.25
2023-05-05T07:00:43.025Z,12.02
2023-05-05T07:03:10.466Z,12.52
2023-05-05T07:05:37.614Z,15.75
2023-05-05T07:08:04.587Z,13.77
2023-05-05T07:10:34.579Z,9.55
2023-05-05T07:13:01.914Z,13.02
2023-05-05T07:15:29.822Z,12.73
2023-05-05T07:17:57.763Z,12.38
2023-05-05T07:20:25.371Z,15.05
2023-05-05T07:22:52.386Z,13.10
2023-05-05T07:25:19.437Z,16.85
2023-05-05T07:27:46.644Z,17.80
2023-05-05T07:30:16.559Z,7.47
2023-05-05T07:32:46.108Z,7.63
2023-05-05T07:35:13.514Z,9.13
2023-05-05T07:37:40.733Z,7.28
2023-05-05T07:40:08.533Z,18.92
2023-05-05T07:42:36.094Z,12.25
2023-05-05T07:45:03.693Z,15.85
2023-05-05T07:47:30.955Z,10.95
2023-05-05T07:49:58.342Z,10.18
2023-05-05T07:52:43.679Z,11.93
2023-05-05T07:55:12.764Z,15.23
2023-05-05T07:57:40.299Z,28.67
2023-05-05T08:00:08.132Z,18.55
2023-05-05T08:02:41.550Z,8.40
2023-05-05T08:05:09.491Z,10.98
2023-05-05T08:07:41.189Z,11.60
2023-05-05T08:10:12.644Z,16.33
2023-05-05T08:12:40.660Z,14.20
2023-05-05T08:15:08.968Z,13.80
2023-05-05T08:17:50.651Z,12.70
2023-05-05T08:20:19.525Z,8.18
2023-05-05T08:22:46.980Z,15.88
2023-05-05T08:25:14.721Z,15.65
2023-05-05T08:27:43.293Z,14.10
2023-05-05T08:30:11.396Z,14.20
2023-05-05T08:32:38.835Z,16.08
2023-05-05T08:35:07.245Z,11.07
2023-05-05T08:37:34.625Z,11.07
2023-05-05T08:40:01.665Z,16.25
2023-05-05T08:42:38.159Z,10.35
2023-05-05T08:45:07.691Z,11.85
2023-05-05T08:47:36.132Z,15.63
2023-05-05T08:50:03.448Z,18.80
2023-05-05T08:52:38.586Z,12.40
2023-05-05T08:55:15.463Z,10.85
2023-05-05T08:57:55.060Z,7.03
2023-05-05T09:00:23.239Z,10.85
2023-05-05T09:02:50.882Z,7.38
2023-05-05T09:05:18.311Z,6.72
2023-05-05T09:07:47.441Z,7.10
2023-05-05T09:10:15.052Z,11.05
2023-05-05T09:12:42.278Z,17.25
2023-05-05T09:15:14.100Z,13.75
2023-05-05T09:17:43.671Z,19.73
2023-05-05T09:20:12.516Z,12.05
2023-05-05T09:22:42.801Z,7.45
2023-05-05T09:25:12.223Z,9.85
2023-05-05T09:27:49.585Z,9.10
2023-05-05T09:30:23.260Z,14.25
2023-05-05T09:32:53.078Z,12.43
2023-05-05T09:35:21.430Z,6.88
2023-05-05T09:37:48.545Z,15.25
2023-05-05T09:40:18.088Z,10.20
2023-05-05T09:42:45.537Z,12.77
2023-05-05T09:45:18.660Z,8.73
2023-05-05T09:47:47.128Z,15.63
2023-05-05T09:50:21.502Z,16.95
2023-05-05T09:52:59.981Z,10.13
2023-05-05T09:55:27.047Z,13.07
2023-05-05T09:57:54.048Z,7.57
2023-05-05T10:00:21.848Z,8.27
2023-05-05T10:02:48.892Z,7.35
2023-05-05T10:05:19.093Z,7.53
2023-05-05T10:07:47.411Z,8.35
2023-05-05T10:10:16.961Z,7.72
2023-05-05T10:12:47.361Z,6.40
2023-05-05T10:15:16.417Z,8.82
2023-05-05T10:20:21.279Z,11.05
2023-05-05T10:22:53.001Z,7.10
2023-05-05T10:25:39.312Z,11.88
2023-05-05T10:28:09.902Z,13.57
2023-05-05T10:30:43.478Z,14.95
2023-05-05T10:33:31.611Z,7.18
2023-05-05T10:36:02.310Z,10.38
2023-05-05T10:38:33.763Z,7.15
2023-05-05T10:41:04.362Z,6.25
2023-05-05T10:43:32.176Z,8.25
2023-05-05T10:45:59.854Z,10.35
2023-05-05T10:48:41.966Z,12.00
2023-05-05T10:51:39.524Z,8.93
2023-05-05T10:54:17.139Z,9.05
2023-05-05T10:56:44.160Z,7.47
2023-05-05T10:59:36.226Z,6.15
2023-05-05T11:02:23.880Z,10.40
2023-05-05T11:05:23.534Z,5.30
2023-05-05T11:07:51.778Z,5.78
2023-05-05T11:10:21.100Z,5.60
2023-05-05T11:13:02.554Z,6.80
2023-05-05T11:15:29.818Z,12.88
2023-05-05T11:18:07.905Z,5.03
2023-05-05T11:20:35.604Z,6.18
2023-05-05T11:23:02.537Z,5.85
2023-05-05T11:25:39.109Z,9.68
2023-05-05T11:28:12.943Z,3.22
2023-05-05T11:30:55.289Z,7.00
2023-05-05T11:33:31.733Z,8.00
2023-05-05T11:36:05.961Z,3.00
2023-05-05T11:38:36.708Z,8.20
2023-05-05T11:41:13.582Z,4.95
2023-05-05T11:43:41.900Z,5.68
2023-05-05T11:46:15.397Z,5.38
2023-05-05T11:48:48.568Z,10.75
2023-05-05T11:51:17.085Z,3.33
2023-05-05T11:53:48.822Z,7.45
2023-05-05T11:56:21.863Z,11.25
2023-05-05T11:59:04.875Z,14.35
2023-05-05T12:01:31.887Z,8.68
2023-05-05T12:03:59.606Z,5.50
2023-05-05T12:06:27.706Z,4.93
2023-05-05T12:08:55.011Z,6.35
2023-05-05T12:11:21.940Z,4.13
2023-05-05T12:13:48.997Z,10.07
2023-05-05T12:16:16.588Z,8.15
2023-05-05T12:18:43.659Z,5.82
2023-05-05T12:21:21.414Z,4.40
2023-05-05T12:23:48.541Z,12.50
2023-05-05T12:26:26.186Z,3.58
2023-05-05T12:28:53.399Z,5.13
2023-05-05T12:31:20.576Z,10.13
2023-05-05T12:33:48.831Z,10.98
2023-05-05T12:36:16.545Z,3.75
2023-05-05T12:38:43.546Z,9.38
2023-05-05T12:41:10.565Z,11.57
2023-05-05T12:43:38.819Z,7.65
2023-05-05T12:46:11.195Z,4.00
2023-05-05T12:48:40.518Z,6.25
2023-05-05T12:51:18.497Z,7.63
2023-05-05T12:53:49.427Z,8.20
2023-05-05T12:56:39.033Z,7.30
2023-05-05T12:59:08.155Z,8.70
2023-05-05T13:01:52.612Z,13.85
2023-05-05T13:04:21.223Z,10.80
2023-05-05T13:06:49.354Z,7.35
2023-05-05T13:09:34.011Z,4.75
2023-05-05T13:12:03.204Z,5.82
2023-05-05T13:14:31.649Z,3.58
2023-05-05T13:16:58.884Z,10.52
2023-05-05T13:19:25.880Z,5.22
2023-05-05T13:21:53.665Z,8.23
2023-05-05T13:24:28.776Z,9.13
2023-05-05T13:29:33.638Z,10.52
2023-05-05T13:32:00.777Z,8.02
2023-05-05T13:34:28.327Z,5.22
2023-05-05T13:36:55.355Z,3.50
2023-05-05T13:39:22.536Z,6.75
2023-05-05T13:41:49.482Z,4.93
2023-05-05T13:44:16.597Z,10.07
2023-05-05T13:46:43.928Z,9.18
2023-05-05T13:49:11.277Z,9.50
2023-05-05T13:51:39.074Z,5.15
2023-05-05T13:54:06.971Z,12.07
2023-05-05T13:56:34.696Z,7.30
2023-05-05T13:59:02.566Z,9.10
2023-05-05T14:01:30.342Z,10.35
2023-05-05T14:03:58.152Z,7.88
2023-05-05T14:06:26.041Z,7.57
2023-05-05T14:08:53.070Z,6.60
2023-05-05T14:11:20.798Z,12.77
2023-05-05T14:13:48.260Z,10.10
2023-05-05T14:16:15.652Z,6.65
2023-05-05T14:18:42.684Z,3.83
2023-05-05T14:21:10.074Z,4.15
2023-05-05T14:23:37.093Z,5.93
2023-05-05T14:26:04.414Z,5.97
2023-05-05T14:28:31.360Z,6.13
2023-05-05T14:30:58.369Z,4.57
2023-05-05T14:33:25.753Z,4.50
2023-05-05T14:35:52.733Z,12.05
2023-05-05T14:38:19.737Z,6.78
2023-05-05T14:40:46.970Z,4.03
2023-05-05T14:43:14.151Z,7.35
2023-05-05T14:45:41.534Z,9.32
2023-05-05T14:48:08.848Z,14.65
2023-05-05T14:50:35.932Z,5.75
2023-05-05T14:53:03.640Z,18.35
2023-05-05T14:55:31.217Z,5.80
2023-05-05T14:57:58.128Z,10.07
2023-05-05T15:00:26.920Z,8.65
2023-05-05T15:02:56.317Z,3.10
2023-05-05T15:05:26.162Z,1.77
2023-05-05T15:07:53.316Z,4.65
2023-05-05T15:10:21.859Z,8.95
2023-05-05T15:12:52.387Z,2.88
2023-05-05T15:15:19.910Z,10.52
2023-05-05T15:17:47.188Z,4.78
2023-05-05T15:20:16.967Z,10.07
2023-05-05T15:22:44.123Z,5.10
2023-05-05T15:25:14.925Z,4.53
2023-05-05T15:27:42.461Z,11.95
2023-05-05T15:30:09.937Z,6.07
2023-05-05T15:32:37.031Z,5.20
2023-05-05T15:35:04.672Z,4.03
2023-05-05T15:37:31.874Z,11.13
2023-05-05T15:39:59.044Z,5.25
2023-05-05T15:42:26.539Z,10.27
2023-05-05T15:44:53.637Z,6.07
2023-05-05T15:47:20.584Z,4.07
2023-05-05T15:49:47.492Z,2.53
2023-05-05T15:52:14.536Z,4.00
2023-05-05T15:54:44.495Z,3.92
2023-05-05T15:57:24.545Z,3.63
2023-05-05T15:59:54.973Z,2.95
2023-05-05T16:02:22.360Z,7.90
2023-05-05T16:04:49.315Z,4.65
2023-05-05T16:07:17.226Z,7.13
2023-05-05T16:09:44.570Z,5.57
2023-05-05T16:12:11.658Z,3.67
2023-05-05T16:14:38.591Z,1.75
2023-05-05T16:17:05.600Z,2.20
2023-05-05T16:19:32.629Z,4.35
2023-05-05T16:21:59.547Z,6.85
2023-05-05T16:24:26.583Z,2.90
2023-05-05T16:26:53.530Z,3.38
2023-05-05T16:29:20.450Z,7.13
2023-05-05T16:31:47.655Z,4.68
2023-05-05T16:34:15.571Z,6.93
2023-05-05T16:36:44.335Z,6.18
2023-05-05T16:39:12.089Z,6.78
2023-05-05T16:41:39.312Z,3.65
2023-05-05T16:44:06.785Z,5.25
2023-05-05T16:46:37.417Z,3.13
2023-05-05T16:49:04.622Z,3.28
2023-05-05T16:51:31.663Z,5.22
2023-05-05T16:53:58.612Z,7.10
2023-05-05T16:56:25.850Z,7.57
2023-05-05T16:58:52.882Z,7.03
2023-05-05T17:01:19.996Z,6.45
2023-05-05T17:03:46.968Z,5.05
2023-05-05T17:06:13.890Z,12.95
2023-05-05T17:08:40.902Z,4.88
2023-05-05T17:11:10.882Z,3.70
2023-05-05T17:13:38.569Z,4.43
2023-05-05T17:16:05.788Z,7.75
2023-05-05T17:18:32.816Z,11.90
2023-05-05T17:20:59.798Z,3.20
2023-05-05T17:23:27.248Z,3.72
2023-05-05T17:25:54.290Z,6.80
2023-05-05T17:28:21.279Z,9.90
2023-05-05T17:30:48.329Z,14.32
2023-05-05T17:33:18.452Z,6.03
2023-05-05T17:35:45.640Z,5.28
2023-05-05T17:38:12.684Z,5.03
2023-05-05T17:40:39.726Z,13.40
2023-05-05T17:43:07.561Z,3.72
2023-05-05T17:45:34.544Z,7.95
2023-05-05T17:48:01.643Z,11.57
2023-05-05T17:50:28.736Z,8.15
2023-05-05T17:52:55.722Z,3.80
2023-05-05T17:55:22.607Z,9.63
2023-05-05T17:57:49.569Z,8.32
2023-05-05T18:00:16.915Z,7.03
2023-05-05T18:02:44.523Z,11.65
2023-05-05T18:05:11.804Z,6.35
2023-05-05T18:07:39.061Z,5.43
2023-05-05T18:10:10.839Z,6.60
2023-05-05T18:12:38.114Z,7.75
2023-05-05T18:15:05.787Z,5.47
2023-05-05T18:17:32.773Z,6.63
2023-05-05T18:19:59.860Z,4.80
2023-05-05T18:22:26.801Z,9.02
2023-05-05T18:24:59.083Z,6.10
2023-05-05T18:27:28.752Z,5.75
2023-05-05T18:29:55.765Z,9.90
2023-05-05T18:32:23.923Z,6.00
2023-05-05T18:34:50.990Z,9.68
2023-05-05T18:37:17.938Z,7.68
2023-05-05T18:39:45.314Z,3.33
2023-05-05T18:42:13.287Z,5.53
2023-05-05T18:44:40.348Z,7.20
2023-05-05T18:47:08.507Z,6.10
2023-05-05T18:49:35.684Z,6.82
2023-05-05T18:52:02.597Z,8.68
2023-05-05T18:54:29.573Z,6.32
2023-05-05T18:56:56.536Z,7.32
2023-05-05T18:59:24.405Z,4.35
2023-05-05T19:01:51.475Z,8.88
2023-05-05T19:04:30.068Z,5.95
2023-05-05T19:06:57.900Z,5.30
2023-05-05T19:09:25.060Z,5.22
2023-05-05T19:11:52.706Z,7.85
2023-05-05T19:14:19.861Z,6.43
2023-05-05T19:16:47.564Z,5.78
2023-05-05T19:19:14.755Z,5.60
2023-05-05T19:21:41.761Z,8.95
2023-05-05T19:24:09.749Z,8.52
2023-05-05T19:26:36.903Z,4.45
2023-05-05T19:29:04.061Z,8.05
2023-05-05T19:31:31.545Z,6.60
2023-05-05T19:34:01.858Z,5.18
2023-05-05T19:36:31.834Z,13.82
2023-05-05T19:39:03.174Z,9.85
2023-05-05T19:41:31.492Z,4.13
2023-05-05T19:43:58.655Z,7.35
2023-05-05T19:46:26.839Z,8.25
2023-05-05T19:48:54.308Z,6.95
2023-05-05T19:51:21.418Z,7.05
2023-05-05T19:53:48.547Z,6.43
2023-05-05T19:56:17.226Z,5.18
2023-05-05T19:58:54.292Z,5.53
2023-05-05T20:01:21.417Z,8.55
2023-05-05T20:03:48.632Z,3.70
2023-05-05T20:06:15.975Z,4.95
2023-05-05T20:08:43.537Z,9.40
2023-05-05T20:11:10.714Z,6.20
2023-05-05T20:13:39.229Z,6.63
2023-05-05T20:16:07.417Z,5.22
2023-05-05T20:18:34.423Z,4.65
2023-05-05T20:21:02.490Z,8.88
2023-05-05T20:23:29.675Z,8.70
2023-05-05T20:25:56.894Z,5.90
2023-05-05T20:28:24.030Z,3.65
2023-05-05T20:30:51.112Z,4.00
2023-05-05T20:33:18.169Z,7.55
2023-05-05T20:35:45.100Z,4.72
2023-05-05T20:40:54.833Z,5.75
2023-05-05T20:43:21.842Z,6.35
2023-05-05T20:45:48.772Z,5.68
2023-05-05T20:48:15.775Z,6.25
2023-05-05T20:50:43.282Z,3.25
2023-05-05T20:53:13.867Z,5.82
2023-05-05T20:55:41.199Z,6.18
2023-05-05T20:58:08.217Z,5.97
2023-05-05T21:00:35.529Z,3.80
2023-05-05T21:03:03.024Z,4.65
2023-05-05T21:05:31.672Z,5.07
2023-05-05T21:08:00.838Z,3.20
2023-05-05T21:10:33.180Z,3.58
2023-05-05T21:13:02.110Z,7.72
2023-05-05T21:15:29.780Z,8.70
2023-05-05T21:17:57.326Z,7.00
2023-05-05T21:20:24.598Z,9.13
2023-05-05T21:22:51.629Z,9.75
2023-05-05T21:25:20.828Z,4.38
2023-05-05T21:27:48.667Z,7.05
2023-05-05T21:30:16.117Z,10.15
2023-05-05T21:32:43.540Z,5.13
2023-05-05T21:35:10.887Z,5.85
2023-05-05T21:37:39.227Z,4.97
2023-05-05T21:40:10.858Z,7.93
2023-05-05T21:42:38.122Z,6.13
2023-05-05T21:45:05.518Z,4.85
2023-05-05T21:47:32.642Z,5.28
2023-05-05T21:49:59.639Z,8.93
2023-05-05T21:52:26.840Z,4.68
2023-05-05T21:54:53.763Z,5.85
2023-05-05T21:57:20.771Z,7.05
2023-05-05T21:59:47.754Z,6.10
2023-05-05T22:02:14.640Z,6.75
2023-05-05T22:04:41.537Z,5.40
2023-05-05T22:07:08.427Z,6.30
2023-05-05T22:09:35.352Z,8.00
2023-05-05T22:12:02.694Z,5.13
2023-05-05T22:14:29.716Z,8.70
2023-05-05T22:16:56.632Z,7.25
2023-05-05T22:19:23.606Z,7.82
2023-05-05T22:21:50.500Z,10.98
2023-05-05T22:24:17.424Z,6.55
2023-05-05T22:26:44.425Z,8.65
2023-05-05T22:29:11.531Z,8.38
2023-05-05T22:31:38.866Z,6.95
2023-05-05T22:34:05.871Z,9.85
2023-05-05T22:36:32.785Z,10.73
2023-05-05T22:38:59.730Z,8.88
2023-05-05T22:41:26.871Z,9.20
2023-05-05T22:43:56.743Z,8.38
2023-05-05T22:46:24.741Z,10.07
2023-05-05T22:48:52.903Z,9.25
2023-05-05T22:51:19.836Z,6.13
2023-05-05T22:53:46.729Z,8.00
2023-05-05T22:56:13.904Z,7.32
2023-05-05T22:58:41.116Z,10.00
2023-05-05T23:01:08.306Z,10.75
2023-05-05T23:03:35.348Z,12.55
2023-05-05T23:06:02.380Z,10.52
2023-05-05T23:08:29.317Z,9.30
2023-05-05T23:10:56.334Z,9.02
2023-05-05T23:13:23.470Z,6.28
2023-05-05T23:15:50.451Z,7.47
2023-05-05T23:18:17.396Z,7.15
2023-05-05T23:20:44.349Z,12.32
2023-05-05T23:23:11.288Z,8.88
2023-05-05T23:25:38.175Z,10.13
2023-05-05T23:28:05.240Z,10.10
2023-05-05T23:30:32.325Z,13.30
2023-05-05T23:33:01.134Z,9.20
2023-05-05T23:35:28.197Z,9.43
2023-05-05T23:37:55.292Z,13.57
2023-05-05T23:40:22.422Z,11.10
2023-05-05T23:42:49.555Z,9.23
2023-05-05T23:45:19.201Z,9.80
2023-05-05T23:47:46.443Z,13.10
2023-05-05T23:50:13.365Z,15.07
2023-05-05T23:52:41.823Z,13.15
2023-05-05T23:55:10.355Z,16.40
2023-05-05T23:57:37.800Z,12.52
